Latest Weather Observations for Adelaide Airport

IDS60901

Issued at 10:21 pm CDT Friday 27 March 2015 (issued every 10 minutes, with the page automatically refreshed every 10 minutes)

About weather observations | Map of Adelaide area stations | Latest observations for Adelaide area | Other Formats
Station Details ID: 023034 Name: ADELAIDE AIRPORT Lat: -34.95 Lon: 138.52 Height: 2.0 m
Data from the previous 72 hours. | See also: Recent months at Adelaide Airport
Date/Time
CDT
Tmp

°C
App
Tmp
°C
Dew
Point
°C
Rel
Hum
%
Delta-T

°C
Wind Press
QNH
hPa
Press
MSL
hPa
Rain
since
9 am
mm
Dir
 
Spd
km/h
Gust
km/h
Spd
kts
Gust
kts
27/10:00pm 14.3 11.6 8.9 70 2.7 ESE 13 15 7 8 1027.2 - 0.0
27/09:30pm 15.3 11.8 8.8 65 3.3 SE 17 24 9 13 1027.3 - 0.0
27/09:00pm 16.4 13.0 9.0 61 3.8 SE 17 24 9 13 1027.1 1027.1 0.0
27/08:30pm 16.5 15.0 10.6 68 3.1 SSW 9 9 5 5 1026.8 - 0.0
27/08:00pm 16.1 14.8 11.2 72 2.6 S 9 11 5 6 1026.6 - 0.0
27/07:30pm 16.8 14.7 9.7 63 3.7 S 11 13 6 7 1026.5 - 0.0
27/07:00pm 16.5 13.8 10.2 66 3.3 SSW 15 20 8 11 1026.5 - 0.0
27/06:30pm 16.4 13.1 10.9 70 2.9 SSW 19 26 10 14 1026.4 - 0.0
27/06:00pm 16.6 12.5 11.4 71 2.8 SSW 24 32 13 17 1026.6 1026.6 0.0
27/05:30pm 17.2 13.5 10.2 63 3.7 SSW 20 28 11 15 1026.4 - 0.0
27/05:00pm 17.4 13.9 10.2 62 3.8 SSW 19 24 10 13 1026.3 - 0.0
27/04:30pm 17.4 14.0 11.1 66 3.4 SSW 20 26 11 14 1026.4 - 0.0
27/04:00pm 17.5 13.0 10.1 62 3.9 SW 24 32 13 17 1026.5 - 0.0
27/03:30pm 17.1 12.9 9.8 62 3.8 SW 22 28 12 15 1026.7 - 0.0
27/03:00pm 17.3 12.8 9.9 62 3.9 SW 24 30 13 16 1026.9 1026.9 0.0
27/02:30pm 17.8 12.9 9.8 59 4.2 SW 26 32 14 17 1027.1 - 0.0
27/02:00pm 18.7 13.5 8.9 53 5.1 SW 26 33 14 18 1027.5 - 0.0
27/01:30pm 17.8 12.8 7.9 52 5.0 SW 24 33 13 18 1027.8 - 0.0
27/01:00pm 18.3 13.4 8.3 52 5.1 SW 24 32 13 17 1028.4 - 0.0
27/12:00pm 17.1 12.8 7.0 51 5.0 WSW 19 22 10 12 1029.1 1029.1 0.0
27/11:30am 17.4 14.1 6.3 48 5.5 S 13 20 7 11 1029.4 - 0.0
27/11:00am 16.6 13.3 6.5 51 5.0 S 13 28 7 15 1029.6 - 0.0
27/10:30am 16.5 13.6 6.4 51 4.9 SSE 11 17 6 9 1029.7 - 0.0
27/09:30am 15.8 12.4 5.7 51 4.8 S 13 17 7 9 1029.6 - 0.0
27/09:00am 15.4 11.0 6.5 55 4.3 S 19 28 10 15 1029.4 1029.4 0.0
27/08:30am 15.1 13.1 6.9 58 4.0 S 7 9 4 5 1029.2 - 0.0
27/08:00am 14.8 12.4 7.2 60 3.7 S 9 13 5 7 1028.8 - 0.0
27/07:30am 14.5 12.2 7.6 63 3.4 SSE 9 11 5 6 1028.5 - 0.0
27/07:00am 14.3 12.1 8.0 66 3.1 SE 9 11 5 6 1028.1 - 0.0
27/06:30am 14.5 12.8 7.6 63 3.4 SSE 6 9 3 5 1027.9 - 0.0
27/05:30am 13.7 12.2 9.1 74 2.3 SE 7 11 4 6 1027.3 - 0.0
27/05:00am 13.8 12.0 9.3 74 2.3 S 9 13 5 7 1027.4 - 0.0
27/04:30am 13.4 13.0 9.9 79 1.8 ENE 2 6 1 3 1027.5 - 0.0
27/04:00am 13.3 12.0 10.0 80 1.7 E 7 9 4 5 1027.5 - 0.0
27/03:30am 13.1 11.5 10.2 82 1.5 ESE 9 11 5 6 1027.6 - 0.0
27/03:00am 13.2 10.1 10.3 82 1.5 SE 17 24 9 13 1027.9 1027.9 0.0
27/02:30am 13.5 11.5 10.2 80 1.7 SSE 11 17 6 9 1028.0 - 0.0
27/02:00am 13.9 12.1 9.6 75 2.2 SE 9 13 5 7 1028.0 - 0.0
27/01:30am 13.8 11.6 9.5 75 2.2 SSW 11 15 6 8 1028.1 - 0.0
27/01:00am 13.9 10.1 9.1 73 2.4 SSW 19 30 10 16 1028.3 - 0.0
27/12:30am 14.4 11.6 8.4 67 3.0 SSE 13 17 7 9 1028.3 - 0.0
 
Date/Time
CDT
Tmp

°C
App
Tmp
°C
Dew
Point
°C
Rel
Hum
%
Delta-T

°C
Wind Press
QNH
hPa
Press
MSL
hPa
Rain
since
9 am
mm
Dir
 
Spd
km/h
Gust
km/h
Spd
kts
Gust
kts
26/11:30pm 14.6 11.5 7.2 61 3.6 S 13 20 7 11 1028.3 - 0.0
26/11:00pm 14.3 11.3 7.6 64 3.3 SSE 13 19 7 10 1028.4 - 0.0
26/10:30pm 14.1 11.9 8.0 66 3.0 SE 9 13 5 7 1028.4 - 0.0
26/10:00pm 14.1 11.6 8.0 66 3.0 SSE 11 15 6 8 1028.4 - 0.0
26/09:30pm 13.9 9.6 8.0 67 2.9 S 20 32 11 17 1028.5 - 0.0
26/09:00pm 14.8 9.5 8.6 66 3.1 SSW 26 43 14 23 1028.2 1028.2 0.0
26/08:30pm 15.9 10.4 4.2 45 5.4 SSW 22 30 12 16 1027.9 - 0.0
26/08:00pm 15.5 9.9 7.1 57 4.1 SSW 26 37 14 20 1027.8 - 0.0
26/07:30pm 16.1 10.8 5.1 48 5.2 SSW 22 32 12 17 1027.5 - 0.0
26/07:00pm 15.8 10.2 5.2 49 5.0 SSW 24 33 13 18 1027.3 - 0.0
26/06:30pm 16.2 9.7 4.7 46 5.4 SSW 28 37 15 20 1027.1 - 0.0
26/06:00pm 17.1 10.2 2.8 38 6.5 SSW 28 35 15 19 1026.7 1026.7 0.0
26/05:30pm 16.9 9.9 4.3 43 5.9 SSW 30 43 16 23 1026.6 - 0.0
26/05:00pm 17.1 9.6 3.4 40 6.3 SSW 32 43 17 23 1026.4 - 0.0
26/04:30pm 17.1 10.7 5.4 46 5.6 SSW 28 33 15 18 1026.2 - 0.0
26/04:00pm 16.8 10.6 6.1 49 5.2 SSW 28 37 15 20 1026.3 - 0.0
26/03:30pm 17.9 11.5 5.4 43 6.1 SW 28 35 15 19 1026.3 - 0.0
26/03:00pm 18.5 11.8 5.5 42 6.3 SW 30 39 16 21 1026.3 1026.3 0.0
26/02:30pm 18.2 11.0 5.0 41 6.4 SW 32 37 17 20 1026.5 - 0.0
26/02:00pm 17.7 10.3 4.9 42 6.1 SW 33 44 18 24 1026.7 - 0.0
26/01:30pm 18.3 11.0 4.6 40 6.5 SW 32 41 17 22 1026.9 - 0.0
26/01:00pm 16.4 10.2 6.3 51 4.9 SW 28 37 15 20 1027.0 - 0.0
26/12:30pm 17.6 10.2 4.1 40 6.4 SW 32 41 17 22 1026.8 - 0.0
26/12:00pm 17.2 9.8 3.8 41 6.2 SW 32 44 17 24 1026.8 1026.8 0.0
26/11:30am 16.9 9.7 4.8 44 5.7 SW 32 41 17 22 1026.8 - 0.0
26/11:00am 17.0 9.4 4.1 42 6.0 SW 33 41 18 22 1026.7 - 0.0
26/10:30am 15.6 8.5 3.8 45 5.4 SW 30 41 16 22 1026.4 - 0.0
26/10:00am 15.3 7.5 3.1 44 5.5 SW 33 43 18 23 1026.1 - 0.0
26/09:30am 15.6 8.2 4.1 46 5.3 SW 32 37 17 20 1025.7 - 0.0
26/09:00am 15.3 7.9 4.8 49 4.9 SW 33 41 18 22 1025.4 1025.4 0.2
26/08:30am 14.9 7.5 4.0 48 5.0 SW 32 41 17 22 1024.8 - 0.2
26/08:00am 14.4 7.0 4.1 50 4.7 SW 32 46 17 25 1024.4 - 0.2
26/07:30am 14.3 6.5 3.1 47 5.0 SW 33 46 18 25 1024.0 - 0.2
26/07:00am 14.3 6.6 3.4 48 4.9 SW 33 41 18 22 1023.6 - 0.2
26/06:30am 14.3 6.8 4.3 51 4.6 SW 33 46 18 25 1023.2 - 0.2
26/06:00am 14.2 6.0 2.7 46 5.1 SW 35 50 19 27 1022.9 1022.9 0.2
26/05:35am 14.2 6.9 2.7 46 5.1 SW 30 50 16 27 1022.7 - 0.2
26/05:30am 14.1 6.8 2.5 45 5.1 SW 30 43 16 23 1022.7 - 0.2
26/05:00am 14.3 6.8 3.4 48 4.9 SW 32 46 17 25 1022.4 - 0.2
26/04:30am 14.3 6.9 4.0 50 4.7 SW 32 43 17 23 1022.3 - 0.2
26/04:00am 14.2 6.2 3.6 49 4.8 SW 35 46 19 25 1022.3 - 0.2
26/03:30am 14.0 6.0 3.6 49 4.7 SW 35 44 19 24 1022.3 - 0.2
26/03:00am 14.1 6.5 3.1 47 4.9 SW 32 43 17 23 1022.3 1022.3 0.2
26/02:30am 14.1 5.6 3.1 47 4.9 SW 37 48 20 26 1022.3 - 0.2
26/02:00am 14.5 6.4 3.4 47 5.0 SW 35 48 19 26 1022.1 - 0.2
26/01:30am 14.6 6.0 2.7 44 5.3 SW 37 54 20 29 1022.1 - 0.2
26/01:00am 14.6 5.8 3.5 47 5.0 SW 39 52 21 28 1021.9 - 0.2
26/12:30am 14.6 5.9 2.0 42 5.5 SW 37 48 20 26 1021.8 - 0.2
26/12:00am 15.0 6.5 2.9 44 5.4 SW 37 52 20 28 1021.8 1021.8 0.2
 
Date/Time
CDT
Tmp

°C
App
Tmp
°C
Dew
Point
°C
Rel
Hum
%
Delta-T

°C
Wind Press
QNH
hPa
Press
MSL
hPa
Rain
since
9 am
mm
Dir
 
Spd
km/h
Gust
km/h
Spd
kts
Gust
kts
25/11:30pm 14.9 6.3 2.5 43 5.5 SW 37 48 20 26 1021.6 - 0.2
25/11:11pm 15.0 7.5 3.5 46 5.2 SW 32 50 17 27 1021.5 - 0.2
25/11:00pm 15.0 7.1 4.4 49 4.9 SW 35 44 19 24 1021.5 - 0.2
25/10:30pm 15.0 6.5 1.1 39 6.0 SW 35 52 19 28 1021.4 - 0.2
25/10:00pm 15.1 7.0 3.1 44 5.4 SW 35 48 19 26 1021.2 - 0.2
25/09:30pm 15.3 7.5 3.1 44 5.5 SW 33 50 18 27 1021.0 - 0.2
25/09:00pm 15.6 7.1 3.3 43 5.6 SW 37 50 20 27 1020.5 1020.5 0.2
25/08:30pm 15.7 8.2 6.2 53 4.6 SW 35 44 19 24 1019.8 - 0.2
25/08:00pm 15.0 7.5 6.3 56 4.2 SW 35 50 19 27 1019.5 - 0.2
25/07:30pm 14.8 6.8 5.8 55 4.3 SW 37 50 20 27 1019.4 - 0.2
25/07:00pm 14.3 7.9 12.1 87 1.2 SW 37 56 20 30 1019.0 - 0.2
25/06:30pm 14.4 7.5 12.8 90 0.9 SSW 41 54 22 29 1018.2 - 0.0
25/06:22pm 14.5 7.2 12.7 89 1.0 SW 43 61 23 33 1017.9 - 0.0
25/06:13pm 15.6 7.8 13.1 85 1.4 SW 46 56 25 30 1017.5 - 0.0
25/06:00pm 17.1 9.7 13.2 78 2.2 W 44 57 24 31 1017.0 1017.0 0.0
25/05:34pm 17.9 9.2 12.7 71 2.9 W 50 59 27 32 1016.8 - 0.0
25/05:30pm 17.8 12.4 12.8 72 2.8 WNW 33 63 18 34 1016.8 - 0.0
25/05:00pm 19.7 13.1 7.6 45 6.2 NW 32 39 17 21 1016.6 - 0.0
25/04:30pm 19.9 13.1 6.8 42 6.6 WNW 32 41 17 22 1016.7 - 0.0
25/04:00pm 19.9 12.2 5.4 38 7.1 WNW 35 46 19 25 1016.9 - 0.0
25/03:30pm 21.1 13.6 6.4 38 7.4 WNW 35 48 19 26 1016.9 - 0.0
25/03:00pm 20.3 12.6 5.2 37 7.4 WNW 35 48 19 26 1017.3 1017.3 0.0
25/02:30pm 20.4 13.4 6.2 39 7.1 WNW 32 46 17 25 1017.6 - 0.0
25/02:00pm 20.4 13.6 3.2 32 8.1 W 28 35 15 19 1017.9 - 0.0
25/01:30pm 19.7 14.6 6.2 41 6.7 NNW 22 32 12 17 1018.5 - 0.0
25/01:00pm 19.0 12.9 6.6 44 6.2 NW 28 35 15 19 1018.9 - 0.0
25/12:30pm 18.9 13.2 6.7 45 6.1 WNW 26 35 14 19 1019.1 - 0.0
25/12:00pm 18.0 12.6 8.0 52 5.1 NW 26 35 14 19 1019.2 1019.2 0.0
25/11:30am 16.3 11.2 7.7 56 4.3 N 24 32 13 17 1019.6 - 0.0
25/11:00am 16.7 12.0 6.0 49 5.2 N 20 28 11 15 1019.8 - 0.0
25/10:30am 15.9 10.9 4.8 47 5.2 N 20 26 11 14 1020.1 - 0.0
25/10:00am 15.6 10.3 5.0 49 5.0 N 22 28 12 15 1020.4 - 0.0
25/09:30am 14.8 9.9 5.0 52 4.6 NNE 20 26 11 14 1020.5 - 0.0
25/09:00am 14.1 9.3 4.8 53 4.3 NNE 19 26 10 14 1020.4 1020.4 0.0
25/08:30am 13.3 8.9 4.8 56 3.9 NNE 17 20 9 11 1020.1 - 0.0
25/08:00am 12.6 8.6 5.0 60 3.5 NNE 15 17 8 9 1020.2 - 0.0
25/07:30am 12.3 8.7 5.1 61 3.3 NNE 13 17 7 9 1020.0 - 0.0
25/07:00am 12.7 9.4 6.4 65 3.0 NE 13 17 7 9 1020.1 - 0.0
25/06:30am 12.5 9.0 5.4 62 3.3 NNE 13 19 7 10 1019.6 - 0.0
25/06:00am 13.5 9.9 4.8 55 4.0 N 13 15 7 8 1019.6 1019.6 0.0
25/05:30am 14.0 12.9 5.2 55 4.1 CALM 0 0 0 0 1019.8 - 0.0
25/05:00am 13.9 13.0 5.9 58 3.8 CALM 0 0 0 0 1019.7 - 0.0
25/04:30am 13.7 12.8 5.9 59 3.7 CALM 0 0 0 0 1019.8 - 0.0
25/04:00am 13.6 10.9 5.5 58 3.8 ESE 9 11 5 6 1019.8 - 0.0
25/03:30am 13.5 10.8 5.6 59 3.7 ENE 9 13 5 7 1020.3 - 0.0
25/03:00am 13.5 10.0 5.4 58 3.8 E 13 15 7 8 1020.6 1020.6 0.0
25/02:30am 13.5 10.3 5.3 57 3.8 SE 11 13 6 7 1021.0 - 0.0
25/02:00am 13.2 10.8 5.2 58 3.7 E 7 9 4 5 1021.1 - 0.0
25/01:30am 13.5 10.7 5.1 57 3.9 E 9 11 5 6 1021.2 - 0.0
25/01:00am 13.8 10.6 4.9 55 4.1 E 11 13 6 7 1021.3 - 0.0
25/12:30am 13.9 11.0 4.8 54 4.2 E 9 11 5 6 1021.9 - 0.0
25/12:00am 14.5 11.6 4.5 51 4.6 SE 9 9 5 5 1022.0 1022.0 0.0
 
Date/Time
CDT
Tmp

°C
App
Tmp
°C
Dew
Point
°C
Rel
Hum
%
Delta-T

°C
Wind Press
QNH
hPa
Press
MSL
hPa
Rain
since
9 am
mm
Dir
 
Spd
km/h
Gust
km/h
Spd
kts
Gust
kts
24/11:30pm 14.1 11.3 5.1 54 4.2 SE 9 9 5 5 1022.1 - 0.0
24/11:00pm 14.2 11.8 5.2 54 4.2 ESE 7 9 4 5 1022.4 - 0.0
24/10:30pm 13.5 10.4 5.6 59 3.7 SE 11 11 6 6 1022.5 - 0.0

Latest Capital City Observations: Canberra | Sydney | Melbourne | Brisbane | Adelaide | Perth | Hobart | Darwin

Other Formats:

Comma delimited format used in spreadsheet applications
http://www.bom.gov.au/fwo/IDS60901/IDS60901.94672.axf

JavaScript Object Notation format (JSON) in row-major order
http://www.bom.gov.au/fwo/IDS60901/IDS60901.94672.json